createdAt,value
2022-10-16T00:00:05.439Z,951.85
2022-10-16T00:01:05.437Z,951.84
2022-10-16T00:02:05.534Z,951.85
2022-10-16T00:03:05.437Z,951.83
2022-10-16T00:04:05.428Z,951.89
2022-10-16T00:05:05.398Z,951.93
2022-10-16T00:06:05.391Z,951.95
2022-10-16T00:07:05.424Z,951.93
2022-10-16T00:08:05.392Z,951.89
2022-10-16T00:09:05.433Z,951.96
2022-10-16T00:10:05.393Z,951.89
2022-10-16T00:11:05.354Z,951.88
2022-10-16T00:12:05.342Z,951.89
2022-10-16T00:13:05.365Z,951.86
2022-10-16T00:14:05.333Z,951.89
2022-10-16T00:15:05.314Z,951.9
2022-10-16T00:16:05.310Z,951.91
2022-10-16T00:17:05.298Z,952
2022-10-16T00:18:05.288Z,951.91
2022-10-16T00:19:05.282Z,952.01
2022-10-16T00:20:05.298Z,952
2022-10-16T00:21:05.269Z,952.1
2022-10-16T00:22:05.256Z,952.1
2022-10-16T00:23:05.248Z,952.17
2022-10-16T00:24:05.243Z,952.25
2022-10-16T00:25:05.231Z,952.28
2022-10-16T00:26:05.223Z,952.28
2022-10-16T00:27:05.214Z,952.27
2022-10-16T00:28:05.207Z,952.29
2022-10-16T00:29:05.271Z,952.3
2022-10-16T00:30:05.236Z,952.39
2022-10-16T00:31:05.180Z,952.4
2022-10-16T00:32:05.174Z,952.35
2022-10-16T00:33:05.162Z,952.29
2022-10-16T00:34:05.164Z,952.32
2022-10-16T00:35:05.144Z,952.28
2022-10-16T00:36:05.167Z,952.37
2022-10-16T00:37:05.129Z,952.33
2022-10-16T00:38:05.126Z,952.34
2022-10-16T00:39:05.117Z,952.35
2022-10-16T00:40:05.106Z,952.33
2022-10-16T00:41:05.094Z,952.35
2022-10-16T00:42:05.099Z,952.31
2022-10-16T00:43:05.082Z,952.31
2022-10-16T00:44:05.077Z,952.31
2022-10-16T00:45:05.061Z,952.27
2022-10-16T00:46:05.055Z,952.21
2022-10-16T00:47:05.046Z,952.26
2022-10-16T00:49:05.030Z,952.27
2022-10-16T00:50:05.021Z,952.24
2022-10-16T00:51:05.012Z,952.3
2022-10-16T00:52:05.031Z,952.27
2022-10-16T00:53:04.994Z,952.28
2022-10-16T00:54:04.989Z,952.29
2022-10-16T00:55:04.977Z,952.31
2022-10-16T00:56:04.972Z,952.34
2022-10-16T00:57:05.044Z,952.31
2022-10-16T00:58:04.954Z,952.32
2022-10-16T00:59:04.948Z,952.3
2022-10-16T01:00:04.939Z,952.28
2022-10-16T01:01:04.989Z,952.3
2022-10-16T01:02:04.922Z,952.32
2022-10-16T01:03:04.911Z,952.3
2022-10-16T01:04:04.904Z,952.27
2022-10-16T01:05:04.894Z,952.28
2022-10-16T01:06:04.886Z,952.25
2022-10-16T01:07:04.879Z,952.22
2022-10-16T01:08:04.902Z,952.18
2022-10-16T01:09:04.861Z,952.25
2022-10-16T01:10:04.865Z,952.31
2022-10-16T01:11:04.845Z,952.32
2022-10-16T01:12:04.835Z,952.31
2022-10-16T01:13:04.828Z,952.3
2022-10-16T01:14:04.818Z,952.28
2022-10-16T01:15:04.815Z,952.27
2022-10-16T01:16:04.808Z,952.3
2022-10-16T01:17:04.796Z,952.3
2022-10-16T01:18:04.786Z,952.3
2022-10-16T01:19:04.777Z,952.33
2022-10-16T01:20:04.855Z,952.33
2022-10-16T01:21:04.760Z,952.3
2022-10-16T01:22:04.752Z,952.35
2022-10-16T01:23:04.745Z,952.3
2022-10-16T01:24:04.759Z,952.24
2022-10-16T01:25:04.730Z,952.28
2022-10-16T01:26:04.718Z,952.28
2022-10-16T01:27:04.710Z,952.27
2022-10-16T01:28:04.706Z,952.23
2022-10-16T01:29:04.734Z,952.23
2022-10-16T01:30:04.684Z,952.2
2022-10-16T01:31:04.677Z,952.21
2022-10-16T01:32:04.666Z,952.22
2022-10-16T01:33:04.663Z,952.21
2022-10-16T01:34:04.653Z,952.25
2022-10-16T01:35:04.645Z,952.28
2022-10-16T01:36:04.633Z,952.33
2022-10-16T01:37:04.625Z,952.32
2022-10-16T01:38:04.617Z,952.37
2022-10-16T01:39:04.611Z,952.4
2022-10-16T01:40:04.622Z,952.43
2022-10-16T01:41:04.595Z,952.39
2022-10-16T01:42:04.583Z,952.42
2022-10-16T01:43:04.577Z,952.44
2022-10-16T01:44:04.568Z,952.45
2022-10-16T01:45:04.561Z,952.44
2022-10-16T01:46:04.549Z,952.46
2022-10-16T01:47:04.542Z,952.47
2022-10-16T01:48:04.536Z,952.45
2022-10-16T01:49:04.528Z,952.44
2022-10-16T01:50:04.516Z,952.44
2022-10-16T01:51:04.510Z,952.46
2022-10-16T01:52:04.503Z,952.46
2022-10-16T01:53:04.495Z,952.45
2022-10-16T01:54:04.483Z,952.44
2022-10-16T01:55:04.475Z,952.36
2022-10-16T01:56:04.493Z,952.36
2022-10-16T01:57:04.460Z,952.35
2022-10-16T01:58:04.449Z,952.42
2022-10-16T01:59:04.442Z,952.39
2022-10-16T02:00:04.433Z,952.45
2022-10-16T02:01:04.502Z,952.38
2022-10-16T02:02:04.418Z,952.34
2022-10-16T02:03:04.409Z,952.38
2022-10-16T02:04:04.400Z,952.41
2022-10-16T02:05:04.389Z,952.46
2022-10-16T02:06:04.383Z,952.45
2022-10-16T02:07:04.374Z,952.47
2022-10-16T02:08:05.469Z,952.43
2022-10-16T02:09:04.358Z,952.52
2022-10-16T02:10:04.350Z,952.52
2022-10-16T02:11:04.340Z,952.56
2022-10-16T02:12:04.357Z,952.56
2022-10-16T02:13:04.326Z,952.48
2022-10-16T02:14:04.316Z,952.45
2022-10-16T02:15:04.310Z,952.51
2022-10-16T02:16:04.299Z,952.46
2022-10-16T02:17:04.291Z,952.54
2022-10-16T02:18:04.286Z,952.52
2022-10-16T02:19:04.273Z,952.49
2022-10-16T02:20:04.279Z,952.41
2022-10-16T02:21:04.406Z,952.47
2022-10-16T02:22:04.254Z,952.46
2022-10-16T02:23:04.239Z,952.46
2022-10-16T02:24:04.234Z,952.44
2022-10-16T02:25:04.222Z,952.47
2022-10-16T02:26:04.219Z,952.48
2022-10-16T02:27:04.205Z,952.51
2022-10-16T02:28:04.223Z,952.43
2022-10-16T02:29:04.191Z,952.42
2022-10-16T02:30:04.181Z,952.42
2022-10-16T02:31:04.171Z,952.45
2022-10-16T02:32:04.167Z,952.4
2022-10-16T02:33:04.183Z,952.38
2022-10-16T02:34:04.147Z,952.39
2022-10-16T02:35:04.138Z,952.37
2022-10-16T02:36:04.130Z,952.37
2022-10-16T02:37:04.124Z,952.38
2022-10-16T02:38:04.140Z,952.42
2022-10-16T02:39:04.104Z,952.45
2022-10-16T02:40:04.100Z,952.45
2022-10-16T02:41:04.089Z,952.52
2022-10-16T02:42:04.079Z,952.5
2022-10-16T02:43:04.070Z,952.55
2022-10-16T02:44:04.131Z,952.53
2022-10-16T02:45:04.055Z,952.54
2022-10-16T02:46:04.046Z,952.51
2022-10-16T02:47:04.115Z,952.61
2022-10-16T02:48:04.463Z,952.58
2022-10-16T02:49:04.455Z,952.65
2022-10-16T02:50:04.448Z,952.64
2022-10-16T02:51:04.438Z,952.61
2022-10-16T02:52:04.430Z,952.57
2022-10-16T02:53:04.421Z,952.56
2022-10-16T02:54:04.415Z,952.57
2022-10-16T02:55:04.404Z,952.55
2022-10-16T02:56:04.394Z,952.56
2022-10-16T02:57:04.391Z,952.6
2022-10-16T02:58:04.379Z,952.59
2022-10-16T02:59:04.372Z,952.59
2022-10-16T03:00:04.385Z,952.57
2022-10-16T03:01:04.400Z,952.56
2022-10-16T03:02:04.340Z,952.61
2022-10-16T03:03:04.336Z,952.65
2022-10-16T03:04:04.325Z,952.73
2022-10-16T03:05:04.320Z,952.66
2022-10-16T03:06:04.306Z,952.7
2022-10-16T03:07:04.300Z,952.66
2022-10-16T03:08:04.289Z,952.65
2022-10-16T03:09:04.282Z,952.69
2022-10-16T03:10:04.513Z,952.72
2022-10-16T03:11:04.506Z,952.81
2022-10-16T03:12:04.496Z,952.8
2022-10-16T03:13:04.488Z,952.82
2022-10-16T03:14:04.478Z,952.87
2022-10-16T03:15:04.471Z,952.93
2022-10-16T03:16:04.486Z,952.99
2022-10-16T03:17:04.453Z,952.98
2022-10-16T03:18:04.444Z,953.07
2022-10-16T03:19:04.443Z,953.04
2022-10-16T03:20:04.428Z,952.99
2022-10-16T03:21:04.419Z,952.99
2022-10-16T03:22:04.410Z,952.97
2022-10-16T03:23:04.401Z,952.99
2022-10-16T03:24:04.394Z,952.94
2022-10-16T03:25:04.402Z,953.02
2022-10-16T03:26:04.373Z,952.98
2022-10-16T03:27:04.371Z,952.99
2022-10-16T03:28:04.357Z,952.91
2022-10-16T03:29:04.514Z,952.94
2022-10-16T03:30:04.340Z,952.98
2022-10-16T03:31:04.334Z,953
2022-10-16T03:32:04.347Z,952.98
2022-10-16T03:49:28.214Z,952.68
2022-10-16T03:50:28.172Z,952.63
2022-10-16T03:51:28.160Z,952.55
2022-10-16T03:52:28.148Z,952.55
2022-10-16T03:53:28.139Z,952.64
2022-10-16T03:54:28.123Z,952.67
2022-10-16T03:55:28.117Z,952.66
2022-10-16T03:56:28.102Z,952.62
2022-10-16T03:57:28.514Z,952.58
2022-10-16T03:58:28.081Z,952.56
2022-10-16T03:59:28.070Z,952.67
2022-10-16T04:00:28.062Z,952.72
2022-10-16T04:01:28.073Z,952.73
2022-10-16T04:02:28.041Z,952.78
2022-10-16T04:03:28.031Z,952.72
2022-10-16T04:04:28.019Z,952.7
2022-10-16T04:05:28.035Z,952.6
2022-10-16T04:06:28.004Z,952.56
2022-10-16T04:07:28.218Z,952.55
2022-10-16T04:08:27.980Z,952.57
2022-10-16T04:09:27.973Z,952.53
2022-10-16T04:10:27.961Z,952.51
2022-10-16T04:11:27.956Z,952.51
2022-10-16T04:12:27.944Z,952.49
2022-10-16T04:13:27.938Z,952.51
2022-10-16T04:14:27.923Z,952.55
2022-10-16T04:15:27.916Z,952.58
2022-10-16T04:16:27.905Z,952.71
2022-10-16T04:17:28.290Z,952.71
2022-10-16T04:18:27.887Z,952.72
2022-10-16T04:19:27.895Z,952.77
2022-10-16T04:20:27.868Z,952.81
2022-10-16T04:21:27.885Z,952.8
2022-10-16T04:23:27.843Z,952.82
2022-10-16T04:24:27.836Z,952.82
2022-10-16T04:25:27.826Z,952.88
2022-10-16T04:26:27.814Z,952.86
2022-10-16T04:27:28.234Z,952.88
2022-10-16T04:28:27.853Z,952.85
2022-10-16T04:29:27.788Z,952.85
2022-10-16T04:30:27.780Z,952.91
2022-10-16T04:31:27.772Z,952.91
2022-10-16T04:32:27.763Z,952.91
2022-10-16T04:33:27.754Z,952.94
2022-10-16T04:34:27.745Z,952.97
2022-10-16T04:35:27.739Z,952.93
2022-10-16T04:36:29.103Z,952.96
2022-10-16T04:37:28.151Z,952.88
2022-10-16T04:38:27.709Z,953.02
2022-10-16T04:39:27.703Z,952.99
2022-10-16T04:40:27.693Z,953.06
2022-10-16T04:41:28.610Z,953.08
2022-10-16T04:42:28.602Z,953.09
2022-10-16T04:44:28.584Z,953.07
2022-10-16T04:45:28.579Z,953.09
2022-10-16T04:46:28.566Z,953.04
2022-10-16T04:47:28.918Z,953.05
2022-10-16T04:48:28.549Z,953.1
2022-10-16T04:49:28.539Z,953.08
2022-10-16T04:50:28.534Z,953.09
2022-10-16T04:51:28.522Z,953.07
2022-10-16T04:52:28.529Z,953.15
2022-10-16T04:53:28.531Z,953.05
2022-10-16T04:54:28.500Z,953.09
2022-10-16T04:55:28.486Z,953
2022-10-16T04:56:28.481Z,953.13
2022-10-16T04:57:28.675Z,953.12
2022-10-16T04:58:28.464Z,953.2
2022-10-16T04:59:28.667Z,953.2
2022-10-16T05:00:28.659Z,953.19
2022-10-16T05:01:28.650Z,953.19
2022-10-16T05:02:28.668Z,953.18
2022-10-16T05:03:28.635Z,953.24
2022-10-16T05:04:28.625Z,953.25
2022-10-16T05:05:28.616Z,953.27
2022-10-16T05:06:28.608Z,953.23
2022-10-16T05:07:28.791Z,953.31
2022-10-16T05:08:28.590Z,953.32
2022-10-16T05:09:28.604Z,953.31
2022-10-16T05:10:28.572Z,953.31
2022-10-16T05:11:28.564Z,953.31
2022-10-16T05:12:28.555Z,953.33
2022-10-16T05:13:28.546Z,953.31
2022-10-16T05:14:28.539Z,953.37
2022-10-16T05:15:28.529Z,953.38
2022-10-16T05:16:28.521Z,953.37
2022-10-16T05:17:28.888Z,953.42
2022-10-16T05:18:28.506Z,953.43
2022-10-16T05:19:29.096Z,953.45
2022-10-16T05:20:28.486Z,953.46
2022-10-16T05:21:28.475Z,953.51
2022-10-16T05:22:28.469Z,953.56
2022-10-16T05:23:28.461Z,953.51
2022-10-16T05:24:28.450Z,953.56
2022-10-16T05:25:28.471Z,953.52
2022-10-16T05:26:28.433Z,953.49
2022-10-16T05:27:28.771Z,953.48
2022-10-16T05:28:28.475Z,953.48
2022-10-16T05:29:28.406Z,953.48
2022-10-16T05:30:28.400Z,953.45
2022-10-16T05:31:28.392Z,953.47
2022-10-16T05:32:28.383Z,953.44
2022-10-16T05:33:28.373Z,953.46
2022-10-16T05:34:28.363Z,953.48
2022-10-16T05:35:28.357Z,953.45
2022-10-16T05:36:28.352Z,953.48
2022-10-16T05:37:28.723Z,953.46
2022-10-16T05:38:28.330Z,953.44
2022-10-16T05:39:28.324Z,953.5
2022-10-16T05:40:28.312Z,953.47
2022-10-16T05:41:28.333Z,953.47
2022-10-16T05:42:28.296Z,953.51
2022-10-16T05:43:28.290Z,953.54
2022-10-16T05:44:28.298Z,953.57
2022-10-16T05:45:28.273Z,953.59
2022-10-16T05:46:28.261Z,953.61
2022-10-16T05:47:28.658Z,953.61
2022-10-16T05:48:28.247Z,953.64
2022-10-16T05:49:28.238Z,953.61
2022-10-16T05:50:28.226Z,953.61
2022-10-16T05:51:28.220Z,953.68
2022-10-16T05:52:28.215Z,953.67
2022-10-16T05:53:28.204Z,953.68
2022-10-16T05:54:28.194Z,953.71
2022-10-16T05:55:28.187Z,953.69
2022-10-16T05:56:28.178Z,953.7
2022-10-16T05:57:28.325Z,953.72
2022-10-16T05:58:28.160Z,953.75
2022-10-16T05:59:28.154Z,953.76
2022-10-16T06:00:28.692Z,953.8
2022-10-16T06:01:28.617Z,953.81
2022-10-16T06:02:28.582Z,953.77
2022-10-16T06:03:28.574Z,953.77
2022-10-16T06:04:28.564Z,953.79
2022-10-16T06:05:28.558Z,953.75
2022-10-16T06:06:28.547Z,953.73
2022-10-16T06:07:28.955Z,953.78
2022-10-16T06:08:28.531Z,953.77
2022-10-16T06:09:28.524Z,953.86
2022-10-16T06:10:28.555Z,953.91
2022-10-16T06:11:28.506Z,953.96
2022-10-16T06:12:28.500Z,953.94
2022-10-16T06:13:28.514Z,953.95
2022-10-16T06:14:28.481Z,954
2022-10-16T06:15:28.477Z,953.98
2022-10-16T06:16:28.479Z,954.02
2022-10-16T06:17:28.735Z,954.05
2022-10-16T06:18:28.447Z,954.04
2022-10-16T06:19:28.443Z,954.08
2022-10-16T06:20:28.571Z,954.06
2022-10-16T06:21:28.435Z,954.06
2022-10-16T06:22:28.416Z,954.01
2022-10-16T06:23:28.408Z,953.94
2022-10-16T06:24:28.403Z,953.96
2022-10-16T06:25:28.391Z,953.87
2022-10-16T06:26:28.384Z,953.9
2022-10-16T06:27:28.551Z,953.85
2022-10-16T06:28:28.428Z,953.98
2022-10-16T06:29:28.385Z,953.98
2022-10-16T06:30:28.353Z,954.01
2022-10-16T06:31:28.490Z,954.03
2022-10-16T06:32:28.338Z,954.01
2022-10-16T06:33:28.331Z,954.05
2022-10-16T06:34:28.324Z,954.09
2022-10-16T06:35:28.312Z,954.09
2022-10-16T06:36:28.304Z,954.09
2022-10-16T06:37:28.522Z,954.08
2022-10-16T06:38:28.290Z,954.08
2022-10-16T06:39:28.281Z,954.01
2022-10-16T06:40:28.279Z,954
2022-10-16T06:41:28.276Z,954.07
2022-10-16T06:42:28.525Z,954.03
2022-10-16T06:43:28.252Z,954.04
2022-10-16T06:44:28.247Z,954.12
2022-10-16T06:45:28.258Z,954.13
2022-10-16T06:46:28.229Z,954.14
2022-10-16T06:47:28.217Z,954.12
2022-10-16T06:48:28.215Z,954.11
2022-10-16T06:49:28.203Z,954.09
2022-10-16T06:50:28.195Z,954.07
2022-10-16T06:51:28.186Z,954.11
2022-10-16T06:52:28.498Z,954.16
2022-10-16T06:53:28.170Z,954.19
2022-10-16T06:54:28.163Z,954.26
2022-10-16T06:55:28.155Z,954.29
2022-10-16T06:56:28.149Z,954.25
2022-10-16T06:57:28.140Z,954.23
2022-10-16T06:58:28.133Z,954.26
2022-10-16T06:59:28.125Z,954.3
2022-10-16T07:00:28.149Z,954.33
2022-10-16T07:01:28.134Z,954.33
2022-10-16T07:02:28.534Z,954.36
2022-10-16T07:03:28.093Z,954.36
2022-10-16T07:04:28.087Z,954.43
2022-10-16T07:05:28.079Z,954.4
2022-10-16T07:06:28.074Z,954.43
2022-10-16T07:07:28.063Z,954.42
2022-10-16T07:08:28.057Z,954.44
2022-10-16T07:09:28.085Z,954.48
2022-10-16T07:10:28.046Z,954.46
2022-10-16T07:11:28.033Z,954.44
2022-10-16T07:12:28.360Z,954.45
2022-10-16T07:13:28.017Z,954.46
2022-10-16T07:14:28.013Z,954.48
2022-10-16T07:15:28.005Z,954.4
2022-10-16T07:16:27.996Z,954.46
2022-10-16T07:17:28.086Z,954.43
2022-10-16T07:18:28.014Z,954.49
2022-10-16T07:19:30.637Z,954.5
2022-10-16T07:20:27.971Z,954.51
2022-10-16T07:21:27.963Z,954.56
2022-10-16T07:22:28.181Z,954.58
2022-10-16T07:23:27.948Z,954.68
2022-10-16T07:24:27.943Z,954.65
2022-10-16T07:25:27.934Z,954.64
2022-10-16T07:26:27.926Z,954.66
2022-10-16T07:27:27.933Z,954.71
2022-10-16T07:28:27.945Z,954.71
2022-10-16T07:29:27.906Z,954.68
2022-10-16T07:30:27.899Z,954.7
2022-10-16T07:31:27.894Z,954.69
2022-10-16T07:32:28.290Z,954.74
2022-10-16T07:33:27.908Z,954.7
2022-10-16T07:34:27.870Z,954.71
2022-10-16T07:35:27.865Z,954.67
2022-10-16T07:36:27.857Z,954.62
2022-10-16T07:37:28.110Z,954.68
2022-10-16T07:38:27.842Z,954.69
2022-10-16T07:39:27.838Z,954.73
2022-10-16T07:40:27.829Z,954.67
2022-10-16T07:41:27.825Z,954.72
2022-10-16T07:42:27.815Z,954.61
2022-10-16T07:43:27.812Z,954.62
2022-10-16T07:44:27.802Z,954.6
2022-10-16T07:45:27.797Z,954.62
2022-10-16T07:46:27.788Z,954.62
2022-10-16T07:47:28.151Z,954.6
2022-10-16T07:48:27.777Z,954.58
2022-10-16T07:49:27.820Z,954.56
2022-10-16T07:50:27.763Z,954.54
2022-10-16T07:51:27.761Z,954.48
2022-10-16T07:52:27.750Z,954.53
2022-10-16T07:53:27.744Z,954.53
2022-10-16T07:54:27.735Z,954.55
2022-10-16T07:55:27.729Z,954.55
2022-10-16T07:56:27.723Z,954.57
2022-10-16T07:57:28.154Z,954.61
2022-10-16T07:58:27.710Z,954.65
2022-10-16T07:59:27.703Z,954.62
2022-10-16T08:00:27.695Z,954.64
2022-10-16T08:01:27.702Z,954.68
2022-10-16T08:02:27.681Z,954.7
2022-10-16T08:03:27.676Z,954.76
2022-10-16T08:04:27.667Z,954.75
2022-10-16T08:05:27.688Z,954.77
2022-10-16T08:06:28.175Z,954.74
2022-10-16T08:07:27.909Z,954.73
2022-10-16T08:08:27.645Z,954.7
2022-10-16T08:09:27.638Z,954.7
2022-10-16T08:10:27.629Z,954.74
2022-10-16T08:11:27.622Z,954.79
2022-10-16T08:12:27.616Z,954.73
2022-10-16T08:13:27.729Z,954.76
2022-10-16T08:14:27.607Z,954.75
2022-10-16T08:15:27.597Z,954.86
2022-10-16T08:16:27.594Z,954.81
2022-10-16T08:17:27.995Z,954.85
2022-10-16T08:18:27.580Z,954.93
2022-10-16T08:19:27.571Z,954.87
2022-10-16T08:20:27.566Z,954.96
2022-10-16T08:21:27.587Z,954.98
2022-10-16T08:22:27.556Z,955.01
2022-10-16T08:23:27.559Z,955.04
2022-10-16T08:24:27.542Z,955.14
2022-10-16T08:25:27.535Z,955.11
2022-10-16T08:26:27.573Z,955.1
2022-10-16T08:27:27.828Z,955.1
2022-10-16T08:28:27.562Z,955.04
2022-10-16T08:29:27.511Z,955.16
2022-10-16T08:30:27.505Z,955.15
2022-10-16T08:31:27.548Z,955.13
2022-10-16T08:32:27.644Z,955.16
2022-10-16T08:33:27.487Z,955.12
2022-10-16T08:34:27.480Z,955.05
2022-10-16T08:35:27.474Z,955.05
2022-10-16T08:36:27.467Z,955.1
2022-10-16T08:37:27.486Z,955.05
2022-10-16T08:38:27.460Z,955.04
2022-10-16T08:39:27.447Z,955.04
2022-10-16T08:40:27.453Z,955.13
2022-10-16T08:41:27.437Z,955.1
2022-10-16T08:42:27.850Z,955.19
2022-10-16T08:43:27.425Z,955.13
2022-10-16T08:44:27.422Z,955.18
2022-10-16T08:45:27.414Z,955.14
2022-10-16T08:46:27.412Z,955.2
2022-10-16T08:47:27.403Z,955.21
2022-10-16T08:48:27.400Z,955.15
2022-10-16T08:49:27.391Z,955.16
2022-10-16T08:50:27.386Z,955.16
2022-10-16T08:51:27.381Z,955.07
2022-10-16T08:52:27.810Z,955.1
2022-10-16T08:53:27.393Z,955.11
2022-10-16T08:54:27.363Z,955.14
2022-10-16T08:55:27.359Z,955.09
2022-10-16T08:56:27.352Z,955.18
2022-10-16T08:57:27.347Z,955.2
2022-10-16T08:58:27.341Z,955.21
2022-10-16T08:59:27.337Z,955.19
2022-10-16T09:00:27.414Z,955.2
2022-10-16T09:01:27.388Z,955.25
2022-10-16T09:02:27.682Z,955.23
2022-10-16T09:03:27.317Z,955.27
2022-10-16T09:04:27.309Z,955.3
2022-10-16T09:05:27.305Z,955.32
2022-10-16T09:06:27.300Z,955.4
2022-10-16T09:07:27.297Z,955.36
2022-10-16T09:08:27.288Z,955.41
2022-10-16T09:09:27.311Z,955.42
2022-10-16T09:10:27.278Z,955.37
2022-10-16T09:11:27.277Z,955.36
2022-10-16T09:12:27.547Z,955.35
2022-10-16T09:13:27.266Z,955.36
2022-10-16T09:14:27.258Z,955.38
2022-10-16T09:15:28.167Z,955.39
2022-10-16T09:16:28.159Z,955.43
2022-10-16T09:17:28.315Z,955.36
2022-10-16T09:18:29.950Z,955.43
2022-10-16T09:19:28.145Z,955.39
2022-10-16T09:20:28.139Z,955.4
2022-10-16T09:21:28.135Z,955.48
2022-10-16T09:22:28.130Z,955.47
2022-10-16T09:23:28.130Z,955.53
2022-10-16T09:24:29.284Z,955.47
2022-10-16T09:25:28.140Z,955.43
2022-10-16T09:26:28.111Z,955.49
2022-10-16T09:27:28.468Z,955.52
2022-10-16T09:28:28.188Z,955.48
2022-10-16T09:29:28.095Z,955.52
2022-10-16T09:30:28.090Z,955.51
2022-10-16T09:31:28.089Z,955.56
2022-10-16T09:32:28.081Z,955.56
2022-10-16T09:33:28.082Z,955.59
2022-10-16T09:34:28.072Z,955.58
2022-10-16T09:35:28.113Z,955.61
2022-10-16T09:36:28.065Z,955.66
2022-10-16T09:37:28.379Z,955.62
2022-10-16T09:38:28.057Z,955.61
2022-10-16T09:39:28.053Z,955.65
2022-10-16T09:40:28.043Z,955.71
2022-10-16T09:41:28.065Z,955.68
2022-10-16T09:42:28.035Z,955.73
2022-10-16T09:43:28.033Z,955.72
2022-10-16T09:44:28.048Z,955.75
2022-10-16T09:45:28.021Z,955.7
2022-10-16T09:46:28.019Z,955.69
2022-10-16T09:47:28.233Z,955.66
2022-10-16T09:48:28.010Z,955.68
2022-10-16T09:49:28.002Z,955.73
2022-10-16T09:50:28.001Z,955.72
2022-10-16T09:51:27.991Z,955.79
2022-10-16T09:52:27.990Z,955.78
2022-10-16T09:53:27.990Z,955.77
2022-10-16T09:54:27.982Z,955.76
2022-10-16T09:55:27.976Z,955.77
2022-10-16T09:56:27.972Z,955.83
2022-10-16T09:57:28.248Z,955.83
2022-10-16T09:58:27.965Z,955.82
2022-10-16T09:59:27.962Z,955.81
2022-10-16T10:00:27.956Z,955.85
2022-10-16T10:01:27.952Z,955.92
2022-10-16T10:02:27.947Z,955.86
2022-10-16T10:03:27.941Z,955.88
2022-10-16T10:04:27.939Z,955.92
2022-10-16T10:05:27.933Z,955.85
2022-10-16T10:06:27.929Z,955.88
2022-10-16T10:07:28.410Z,955.84
2022-10-16T10:08:27.923Z,955.87
2022-10-16T10:09:27.913Z,955.86
2022-10-16T10:10:27.909Z,955.85
2022-10-16T10:11:27.906Z,955.85
2022-10-16T10:12:28.281Z,955.93
2022-10-16T10:13:27.919Z,955.86
2022-10-16T10:14:27.893Z,955.88
2022-10-16T10:15:27.894Z,955.85
2022-10-16T10:16:27.885Z,955.92
2022-10-16T10:17:27.878Z,955.84
2022-10-16T10:18:27.878Z,955.8
2022-10-16T10:19:28.088Z,955.86
2022-10-16T10:20:27.871Z,955.74
2022-10-16T10:21:27.864Z,955.78
2022-10-16T10:22:28.165Z,955.78
2022-10-16T10:23:27.865Z,955.73
2022-10-16T10:24:27.858Z,955.68
2022-10-16T10:25:27.848Z,955.65
2022-10-16T10:26:27.846Z,955.71
2022-10-16T10:27:27.842Z,955.64
2022-10-16T10:28:27.883Z,955.58
2022-10-16T10:29:27.859Z,955.66
2022-10-16T10:30:27.833Z,955.6
2022-10-16T10:31:27.837Z,955.64
2022-10-16T10:32:28.167Z,955.64
2022-10-16T10:33:27.820Z,955.68
2022-10-16T10:34:27.818Z,955.64
2022-10-16T10:35:27.817Z,955.71
2022-10-16T10:36:27.812Z,955.67
2022-10-16T10:37:27.805Z,955.71
2022-10-16T10:38:27.804Z,955.73
2022-10-16T10:39:27.802Z,955.71
2022-10-16T10:40:27.794Z,955.73
2022-10-16T10:41:29.211Z,955.72
2022-10-16T10:42:28.175Z,955.75
2022-10-16T10:43:27.855Z,955.77
2022-10-16T10:44:27.848Z,955.78
2022-10-16T10:45:27.870Z,955.73
2022-10-16T10:46:27.843Z,955.82
2022-10-16T10:47:27.841Z,955.76
2022-10-16T10:49:27.832Z,955.86
2022-10-16T10:50:27.830Z,955.83
2022-10-16T10:51:27.824Z,955.81
2022-10-16T10:52:28.218Z,955.87
2022-10-16T10:53:27.819Z,955.88
2022-10-16T10:54:27.814Z,955.85
2022-10-16T10:55:27.812Z,955.8
2022-10-16T10:56:27.809Z,955.84
2022-10-16T10:57:27.839Z,955.86
2022-10-16T10:58:29.031Z,955.92
2022-10-16T10:59:27.799Z,955.93
2022-10-16T11:00:27.793Z,955.96
2022-10-16T11:01:27.864Z,955.97
2022-10-16T11:02:28.020Z,956
2022-10-16T11:03:27.785Z,955.98
2022-10-16T11:04:27.779Z,955.99
2022-10-16T11:05:27.779Z,955.94
2022-10-16T11:06:27.773Z,955.99
2022-10-16T11:07:28.046Z,955.99
2022-10-16T11:08:27.766Z,955.94
2022-10-16T11:09:27.765Z,955.92
2022-10-16T11:10:27.758Z,955.97
2022-10-16T11:11:27.756Z,955.96
2022-10-16T11:12:27.751Z,956
2022-10-16T11:13:27.747Z,956
2022-10-16T11:14:27.746Z,956
2022-10-16T11:15:27.742Z,955.92
2022-10-16T11:16:27.737Z,956.02
2022-10-16T11:17:28.055Z,956.02
2022-10-16T11:18:27.729Z,956.02
2022-10-16T11:19:27.728Z,955.99
2022-10-16T11:20:27.723Z,955.99
2022-10-16T11:21:28.843Z,956.02
2022-10-16T11:22:27.718Z,955.96
2022-10-16T11:23:27.719Z,956
2022-10-16T11:24:27.710Z,956.01
2022-10-16T11:25:27.709Z,956.09
2022-10-16T11:26:27.705Z,956.02
2022-10-16T11:27:27.820Z,956.02
2022-10-16T11:28:29.308Z,956.01
2022-10-16T11:29:27.698Z,955.99
2022-10-16T11:30:27.697Z,956.01
2022-10-16T11:31:27.690Z,956.01
2022-10-16T11:32:27.689Z,956.11
2022-10-16T11:33:27.710Z,956.06
2022-10-16T11:34:27.685Z,956.16
2022-10-16T11:35:27.682Z,956.08
2022-10-16T11:36:27.682Z,956.06
2022-10-16T11:37:28.124Z,956.11
2022-10-16T11:38:27.676Z,956.04
2022-10-16T11:39:27.670Z,956.04
2022-10-16T11:40:27.673Z,955.99
2022-10-16T11:41:27.666Z,956
2022-10-16T11:42:27.664Z,956
2022-10-16T11:43:27.662Z,956.03
2022-10-16T11:44:27.661Z,956.07
2022-10-16T11:45:27.656Z,956.12
2022-10-16T11:46:27.655Z,956.17
2022-10-16T11:48:27.652Z,956.15
2022-10-16T11:49:27.673Z,956.09
2022-10-16T11:50:27.644Z,956.1
2022-10-16T11:51:27.640Z,956.12
2022-10-16T11:52:27.639Z,956.07
2022-10-16T11:53:27.636Z,956.09
2022-10-16T11:54:27.634Z,956.04
2022-10-16T11:55:27.632Z,956.13
2022-10-16T11:56:27.637Z,956.11
2022-10-16T11:57:27.867Z,956.15
2022-10-16T11:58:27.627Z,956.11
2022-10-16T11:59:27.622Z,956.09
2022-10-16T12:00:27.619Z,956.15
2022-10-16T12:01:27.616Z,956.16
2022-10-16T12:02:27.959Z,956.2
2022-10-16T12:03:27.633Z,956.2
2022-10-16T12:04:27.610Z,956.22
2022-10-16T12:05:27.628Z,956.25
2022-10-16T12:06:27.608Z,956.28
2022-10-16T12:07:27.599Z,956.25
2022-10-16T12:08:27.973Z,956.27
2022-10-16T12:09:27.965Z,956.3
2022-10-16T12:10:28.107Z,956.27
2022-10-16T12:11:27.960Z,956.33
2022-10-16T12:12:29.093Z,956.26
2022-10-16T12:13:27.954Z,956.31
2022-10-16T12:14:27.953Z,956.35
2022-10-16T12:15:54.524Z,956.38
2022-10-16T12:16:27.948Z,956.31
2022-10-16T12:17:27.948Z,956.4
2022-10-16T12:18:27.951Z,956.38
2022-10-16T12:19:27.946Z,956.38
2022-10-16T12:20:27.936Z,956.37
2022-10-16T12:21:27.961Z,956.39
2022-10-16T12:22:28.225Z,956.42
2022-10-16T12:23:27.935Z,956.43
2022-10-16T12:24:27.924Z,956.39
2022-10-16T12:25:27.920Z,956.38
2022-10-16T12:26:27.917Z,956.46
2022-10-16T12:27:27.916Z,956.41
2022-10-16T12:28:27.963Z,956.5
2022-10-16T12:29:27.910Z,956.41
2022-10-16T12:30:29.912Z,956.45
2022-10-16T12:31:28.663Z,956.48
2022-10-16T12:32:45.525Z,956.52
2022-10-16T12:33:28.665Z,956.51
2022-10-16T12:34:28.654Z,956.52
2022-10-16T12:35:28.677Z,956.52
2022-10-16T12:36:28.647Z,956.53
2022-10-16T12:37:28.673Z,956.53
2022-10-16T12:38:28.641Z,956.52
2022-10-16T12:39:28.639Z,956.55
2022-10-16T12:40:28.633Z,956.59
2022-10-16T12:41:28.633Z,956.53
2022-10-16T12:42:28.839Z,956.55
2022-10-16T12:43:29.071Z,956.52
2022-10-16T12:44:28.620Z,956.53
2022-10-16T12:45:28.618Z,956.53
2022-10-16T12:46:28.615Z,956.56
2022-10-16T12:47:28.612Z,956.51
2022-10-16T12:48:32.465Z,956.55
2022-10-16T12:49:28.605Z,956.51
2022-10-16T12:50:28.598Z,956.55
2022-10-16T12:51:28.610Z,956.53
2022-10-16T12:52:29.169Z,956.55